Time;durP1;ratioP1;P1;durP2;ratioP2;P2;SDS_P1;SDS_P2;PMS_P1;PMS_P2;Temp;Humidity;BMP_temperature;BMP_pressure;BME280_temperature;BME280_humidity;BME280_pressure;Samples;Min_cycle;Max_cycle;Signal;HPM_P1;HPM_P2
2021/11/06 00:00:45;;;;;;;8.80;7.80;;;;;;;12.31;74.76;100075.34;1711862;82;21565;-59
2021/11/06 00:03:12;;;;;;;10.30;7.40;;;;;;;12.31;75.11;100085.05;1711099;82;21490;-59
2021/11/06 00:05:39;;;;;;;8.17;7.37;;;;;;;12.30;75.25;100082.88;1708312;81;21570;-59
2021/11/06 00:08:06;;;;;;;10.40;9.03;;;;;;;12.24;75.50;100081.80;1696897;83;21491;-59
2021/11/06 00:10:33;;;;;;;12.07;8.63;;;;;;;12.16;75.82;100091.36;1709921;83;21440;-58
2021/11/06 00:13:00;;;;;;;11.97;8.43;;;;;;;12.10;76.09;100082.86;1711220;83;21601;-60
2021/11/06 00:15:27;;;;;;;10.53;7.90;;;;;;;12.09;76.46;100085.94;1711167;83;21565;-58
2021/11/06 00:17:54;;;;;;;14.57;8.17;;;;;;;12.15;76.83;100073.84;1704610;81;21525;-59
2021/11/06 00:20:21;;;;;;;10.50;8.00;;;;;;;12.13;76.88;100073.05;1710779;82;21535;-59
2021/11/06 00:22:47;;;;;;;10.95;8.00;;;;;;;12.05;76.94;100080.41;1714053;82;21788;-60
2021/11/06 00:25:14;;;;;;;10.23;8.38;;;;;;;11.90;77.33;100083.69;1700276;82;21478;-59
2021/11/06 00:27:41;;;;;;;10.05;8.08;;;;;;;11.85;77.90;100077.27;1702576;82;21526;-60
2021/11/06 00:30:10;;;;;;;9.37;8.37;;;;;;;11.97;77.74;100083.36;1724422;81;21629;-60
2021/11/06 00:32:37;;;;;;;9.25;7.60;;;;;;;12.02;76.92;100089.78;1731323;81;21720;-59
2021/11/06 00:35:05;;;;;;;10.63;8.45;;;;;;;11.94;76.53;100091.41;1717715;82;21791;-59
2021/11/06 00:37:32;;;;;;;10.30;8.38;;;;;;;11.78;76.53;100081.92;1721522;81;21505;-59
2021/11/06 00:40:00;;;;;;;10.25;7.50;;;;;;;11.67;76.69;100084.98;1722878;81;21622;-59
2021/11/06 00:42:26;;;;;;;9.45;7.90;;;;;;;11.58;77.34;100095.88;1728293;80;21512;-59
2021/11/06 00:44:53;;;;;;;10.53;7.60;;;;;;;11.66;77.43;100100.40;1727174;81;21551;-59
2021/11/06 00:47:19;;;;;;;9.50;7.85;;;;;;;11.64;77.16;100105.31;1690039;82;21542;-57
2021/11/06 00:49:46;;;;;;;9.75;7.62;;;;;;;11.55;77.35;100105.23;1722018;81;21571;-58
2021/11/06 00:52:13;;;;;;;12.82;8.13;;;;;;;11.46;77.75;100110.39;1687672;83;21431;-58
2021/11/06 00:54:39;;;;;;;8.43;6.92;;;;;;;11.41;78.18;100102.27;1695018;84;21523;-58
2021/11/06 00:57:06;;;;;;;15.98;7.10;;;;;;;11.47;78.16;100109.48;1704360;83;21583;-58
2021/11/06 00:59:33;;;;;;;10.07;7.33;;;;;;;11.40;77.44;100113.73;1689079;82;21788;-58
2021/11/06 01:02:00;;;;;;;13.43;7.72;;;;;;;11.16;78.08;100115.06;1696796;84;21640;-59
2021/11/06 01:04:27;;;;;;;12.85;6.72;;;;;;;11.09;78.74;100117.08;1690070;84;21443;-60
2021/11/06 01:06:53;;;;;;;9.18;6.22;;;;;;;11.06;79.11;100113.70;1702270;83;21564;-59
2021/11/06 01:09:20;;;;;;;8.48;6.72;;;;;;;11.08;79.13;100111.87;1691191;82;21526;-59
2021/11/06 01:11:47;;;;;;;10.70;7.33;;;;;;;11.01;79.08;100124.38;1691425;83;21765;-59
2021/11/06 01:14:14;;;;;;;8.43;7.23;;;;;;;10.91;79.39;100138.80;1692360;83;21463;-58
2021/11/06 01:16:41;;;;;;;7.17;6.28;;;;;;;10.86;79.67;100144.21;1671962;83;21852;-60
2021/11/06 01:19:07;;;;;;;10.95;7.20;;;;;;;10.87;79.86;100140.69;1685183;83;21427;-59
2021/11/06 01:21:35;;;;;;;8.10;6.95;;;;;;;10.93;79.71;100134.34;1688578;82;21046;-58
2021/11/06 01:24:01;;;;;;;10.13;6.97;;;;;;;10.88;78.54;100141.06;1679911;82;21876;-59
2021/11/06 01:26:28;;;;;;;8.58;6.70;;;;;;;10.78;76.98;100154.63;1695285;82;21637;-59
2021/11/06 01:28:55;;;;;;;12.28;6.83;;;;;;;10.67;77.24;100158.94;1688831;83;21577;-59
2021/11/06 01:31:22;;;;;;;11.57;6.35;;;;;;;10.60;77.41;100151.70;1689572;82;21539;-60
2021/11/06 01:33:49;;;;;;;7.22;5.00;;;;;;;10.59;77.24;100137.33;1688186;82;21510;-59
2021/11/06 01:36:16;;;;;;;6.75;5.05;;;;;;;10.62;76.02;100145.94;1692013;83;21861;-60
2021/11/06 01:38:43;;;;;;;5.40;4.62;;;;;;;10.54;75.30;100162.91;1693246;83;21464;-61
2021/11/06 01:41:11;;;;;;;7.70;5.00;;;;;;;10.40;74.72;100184.42;1684951;82;21507;-60
2021/11/06 01:43:39;;;;;;;4.90;4.40;;;;;;;10.35;73.90;100181.08;1684509;82;22332;-60
2021/11/06 01:46:07;;;;;;;7.30;5.22;;;;;;;10.23;73.57;100168.72;1690730;82;21606;-60
2021/11/06 01:48:34;;;;;;;5.30;4.42;;;;;;;10.16;73.08;100175.53;1686337;82;21871;-59
2021/11/06 01:51:02;;;;;;;6.03;4.37;;;;;;;10.05;72.88;100174.09;1692014;82;21571;-62
2021/11/06 01:53:28;;;;;;;4.25;3.85;;;;;;;10.00;73.62;100167.27;1692617;82;21593;-59
2021/11/06 01:55:56;;;;;;;7.62;4.28;;;;;;;10.06;72.92;100174.98;1724650;81;20940;-59
2021/11/06 01:58:24;;;;;;;5.83;4.40;;;;;;;9.96;72.97;100187.98;1735065;80;24491;-60
2021/11/06 02:00:51;;;;;;;6.85;4.33;;;;;;;9.90;73.12;100191.67;1739601;81;22033;-59
2021/11/06 02:03:17;;;;;;;6.78;4.53;;;;;;;9.80;72.96;100205.55;1735566;80;20978;-59
2021/11/06 02:05:45;;;;;;;6.25;4.67;;;;;;;9.74;72.82;100218.41;1695971;82;28671;-60
2021/11/06 02:08:14;;;;;;;5.95;4.30;;;;;;;9.66;72.99;100222.16;1682034;84;21645;-59
2021/11/06 02:10:42;;;;;;;5.45;4.00;;;;;;;9.59;72.87;100230.69;1684897;84;21593;-61
2021/11/06 02:13:09;;;;;;;5.70;4.17;;;;;;;9.65;73.53;100242.31;1700531;82;22022;-59
2021/11/06 02:15:36;;;;;;;4.67;4.20;;;;;;;9.61;72.97;100233.27;1695539;83;21506;-59
2021/11/06 02:18:04;;;;;;;6.25;5.20;;;;;;;9.57;73.67;100236.44;1736853;80;21496;-61
2021/11/06 02:20:30;;;;;;;;;;;;;;;9.44;74.33;100243.80;1703556;82;21034;-60
2021/11/06 02:22:57;;;;;;;6.97;4.50;;;;;;;9.37;74.59;100245.33;1675662;83;20500;-61
2021/11/06 02:25:24;;;;;;;8.25;4.75;;;;;;;9.28;75.10;100248.60;1741204;80;21821;-59
2021/11/06 02:27:51;;;;;;;5.55;4.17;;;;;;;9.30;76.30;100259.06;1740198;80;21617;-60
2021/11/06 02:30:18;;;;;;;8.38;4.17;;;;;;;9.38;76.66;100260.16;1734391;81;21547;-59
2021/11/06 02:32:45;;;;;;;9.85;4.55;;;;;;;9.32;76.57;100267.32;1721925;80;21467;-59
2021/11/06 02:35:12;;;;;;;9.18;4.25;;;;;;;9.23;76.67;100276.75;1735525;80;27263;-59
2021/11/06 02:37:39;;;;;;;5.20;4.20;;;;;;;9.17;76.83;100288.70;1747200;81;21625;-59
2021/11/06 02:40:08;;;;;;;5.28;4.45;;;;;;;9.08;77.33;100283.27;1741976;80;21472;-59
2021/11/06 02:42:36;;;;;;;6.92;4.35;;;;;;;9.11;77.63;100290.19;1674941;83;21518;-61
2021/11/06 02:45:05;;;;;;;5.87;4.40;;;;;;;9.18;77.30;100297.00;1674893;84;21580;-61
2021/11/06 02:47:33;;;;;;;8.10;4.42;;;;;;;9.13;76.00;100303.66;1678741;83;21540;-59
2021/11/06 02:50:00;;;;;;;6.87;4.72;;;;;;;9.03;76.36;100302.66;1678103;84;21822;-60
2021/11/06 02:52:27;;;;;;;6.67;4.42;;;;;;;8.91;77.07;100307.73;1669703;83;21511;-60
2021/11/06 02:54:54;;;;;;;6.20;3.90;;;;;;;8.80;77.43;100317.21;1682056;84;21537;-60
2021/11/06 02:57:20;;;;;;;7.22;3.80;;;;;;;8.79;77.60;100315.93;1677295;83;21437;-59
2021/11/06 02:59:52;;;;;;;5.85;4.53;;;;;;;8.83;77.80;100306.62;1680881;83;21437;-60
2021/11/06 03:02:18;;;;;;;5.33;4.60;;;;;;;8.80;77.21;100311.08;1687358;83;22028;-59
2021/11/06 03:04:46;;;;;;;6.10;4.25;;;;;;;8.74;77.76;100316.05;1682652;84;21527;-59
2021/11/06 03:07:12;;;;;;;9.03;4.75;;;;;;;8.66;77.48;100304.87;1679082;83;21528;-60
2021/11/06 03:09:39;;;;;;;7.85;4.90;;;;;;;8.68;77.82;100301.77;1678186;83;21535;-60
2021/11/06 03:12:08;;;;;;;8.67;4.13;;;;;;;8.79;77.77;100306.30;1686970;83;21639;-59
2021/11/06 03:14:36;;;;;;;6.75;4.70;;;;;;;8.77;77.96;100308.09;1659653;84;21793;-59
2021/11/06 03:17:04;;;;;;;6.03;4.58;;;;;;;8.70;77.63;100296.91;1674822;84;21504;-59
2021/11/06 03:19:31;;;;;;;5.72;5.08;;;;;;;8.65;77.25;100300.09;1681186;83;21609;-59
2021/11/06 03:21:57;;;;;;;5.33;3.97;;;;;;;8.50;77.25;100314.42;1691970;83;21650;-60
2021/11/06 03:24:24;;;;;;;5.75;4.08;;;;;;;8.38;77.64;100305.48;1690450;83;21448;-60
2021/11/06 03:26:52;;;;;;;6.25;4.12;;;;;;;8.40;77.99;100302.41;1680492;82;21595;-59
2021/11/06 03:29:19;;;;;;;6.55;4.95;;;;;;;8.45;78.07;100307.11;1674147;83;21634;-59
2021/11/06 03:31:46;;;;;;;5.47;4.17;;;;;;;8.44;77.85;100304.52;1676740;83;21544;-59
2021/11/06 03:34:13;;;;;;;8.77;4.43;;;;;;;8.38;77.93;100302.45;1674591;84;21520;-60
2021/11/06 03:36:40;;;;;;;9.30;3.80;;;;;;;8.31;77.94;100292.14;1666022;83;21814;-59
2021/11/06 03:39:07;;;;;;;5.17;3.87;;;;;;;8.32;77.64;100292.54;1668847;83;21437;-59
2021/11/06 03:41:34;;;;;;;4.30;3.77;;;;;;;8.41;77.50;100282.30;1681937;83;21541;-60
2021/11/06 03:44:00;;;;;;;6.92;3.62;;;;;;;8.42;77.33;100283.62;1670282;84;21571;-60
2021/11/06 03:46:27;;;;;;;5.28;3.92;;;;;;;8.40;77.67;100289.31;1671935;83;21500;-61
2021/11/06 03:48:54;;;;;;;5.22;4.10;;;;;;;8.37;77.96;100295.47;1670513;83;21606;-60
2021/11/06 03:51:21;;;;;;;8.00;3.65;;;;;;;8.30;78.02;100299.58;1672494;84;21834;-59
2021/11/06 03:53:48;;;;;;;4.07;3.67;;;;;;;8.25;78.27;100296.19;1672566;83;21564;-61
2021/11/06 03:56:16;;;;;;;5.28;4.03;;;;;;;8.29;78.38;100299.18;1685910;84;21382;-60
2021/11/06 03:58:43;;;;;;;5.00;4.20;;;;;;;8.32;78.24;100292.54;1672286;83;21529;-60
2021/11/06 04:01:10;;;;;;;7.08;4.25;;;;;;;8.25;78.19;100299.70;1665960;83;21511;-60
2021/11/06 04:03:38;;;;;;;7.35;4.55;;;;;;;8.16;78.51;100308.61;1664259;84;22043;-60
2021/11/06 04:06:05;;;;;;;5.33;4.25;;;;;;;8.12;78.89;100301.72;1674756;84;21488;-60
2021/11/06 04:08:31;;;;;;;5.58;4.60;;;;;;;8.17;79.02;100303.80;1669339;84;21560;-60
2021/11/06 04:10:58;;;;;;;5.12;4.03;;;;;;;8.31;79.06;100312.65;1672503;83;21027;-60
2021/11/06 04:13:26;;;;;;;5.75;4.00;;;;;;;8.39;78.97;100324.27;1668833;84;20984;-60
2021/11/06 04:15:53;;;;;;;6.55;4.60;;;;;;;8.36;78.75;100310.80;1671534;83;22043;-60
2021/11/06 04:18:20;;;;;;;5.42;4.37;;;;;;;8.31;78.95;100308.72;1666667;83;21613;-60
2021/11/06 04:20:48;;;;;;;4.97;4.50;;;;;;;8.30;79.02;100298.27;1677541;84;21437;-59
2021/11/06 04:23:14;;;;;;;5.43;4.30;;;;;;;8.33;79.25;100295.13;1668719;83;21532;-59
2021/11/06 04:25:42;;;;;;;4.70;4.30;;;;;;;8.35;79.19;100292.48;1673175;83;21081;-58
2021/11/06 04:28:09;;;;;;;;;;;;;;;8.31;79.09;100289.06;1676772;83;21814;-58
2021/11/06 04:30:36;;;;;;;6.10;4.37;;;;;;;8.20;79.69;100301.55;1664504;84;20149;-59
2021/11/06 04:33:02;;;;;;;5.53;4.03;;;;;;;8.20;79.69;100301.55;1674895;83;21632;-59
2021/11/06 04:35:29;;;;;;;7.33;3.80;;;;;;;8.18;79.36;100301.58;1677319;83;21497;-59
2021/11/06 04:37:56;;;;;;;4.83;3.65;;;;;;;8.28;79.53;100307.92;1685567;83;20982;-59
2021/11/06 04:40:22;;;;;;;5.70;3.45;;;;;;;8.36;79.23;100309.91;1692138;83;21550;-59
2021/11/06 04:42:49;;;;;;;4.40;3.72;;;;;;;8.29;79.27;100303.11;1689221;83;21582;-59
2021/11/06 04:45:16;;;;;;;4.42;4.03;;;;;;;8.24;79.29;100307.12;1690611;83;21046;-60
2021/11/06 04:47:42;;;;;;;5.53;3.65;;;;;;;8.15;79.23;100311.26;1729688;81;21511;-60
2021/11/06 04:50:11;;;;;;;4.30;3.90;;;;;;;8.14;79.50;100297.77;1720017;81;21574;-60
2021/11/06 04:52:38;;;;;;;6.10;4.08;;;;;;;8.20;79.37;100285.83;1727938;82;21617;-59
2021/11/06 04:55:08;;;;;;;4.80;4.25;;;;;;;8.25;79.26;100311.91;1729906;81;21418;-60
2021/11/06 04:57:35;;;;;;;4.90;4.35;;;;;;;8.14;79.06;100327.44;1733339;81;21457;-61
2021/11/06 05:00:06;;;;;;;5.15;3.90;;;;;;;8.01;79.33;100325.13;1687499;82;21502;-61
2021/11/06 05:02:32;;;;;;;4.78;4.10;;;;;;;7.98;79.70;100316.86;1695607;83;21563;-60
2021/11/06 05:04:59;;;;;;;4.55;4.15;;;;;;;8.07;79.79;100307.50;1724423;81;21811;-60
2021/11/06 05:07:27;;;;;;;5.70;4.60;;;;;;;8.09;79.29;100312.26;1686065;83;21531;-60
2021/11/06 05:09:55;;;;;;;6.70;4.42;;;;;;;7.93;79.29;100320.02;1677605;83;21599;-59
2021/11/06 05:12:23;;;;;;;6.83;4.62;;;;;;;7.85;79.53;100326.73;1728973;81;21018;-59
2021/11/06 05:14:50;;;;;;;4.37;3.72;;;;;;;7.84;79.21;100322.41;1690815;84;21541;-60
2021/11/06 05:17:18;;;;;;;8.65;4.25;;;;;;;7.88;79.21;100331.91;1722646;81;21913;-60
2021/11/06 05:19:48;;;;;;;5.75;4.70;;;;;;;7.96;79.06;100342.23;1680777;84;21122;-61
2021/11/06 05:22:14;;;;;;;5.37;4.35;;;;;;;7.87;78.92;100348.50;1729226;80;21629;-61
2021/11/06 05:24:41;;;;;;;6.53;3.87;;;;;;;7.86;78.60;100335.47;1686933;83;21514;-60
2021/11/06 05:27:08;;;;;;;5.53;4.20;;;;;;;7.76;78.54;100342.63;1692698;82;21496;-60
2021/11/06 05:29:35;;;;;;;7.72;3.75;;;;;;;7.83;78.60;100343.38;1692749;82;21782;-59
2021/11/06 05:32:02;;;;;;;5.47;4.40;;;;;;;7.83;79.02;100347.30;1691958;82;21502;-59
2021/11/06 05:34:28;;;;;;;5.25;4.70;;;;;;;7.82;78.68;100342.94;1728959;81;21513;-59
2021/11/06 05:36:55;;;;;;;6.12;4.62;;;;;;;7.73;78.25;100341.39;1722579;81;21066;-55
2021/11/06 05:39:22;;;;;;;4.83;4.33;;;;;;;7.69;78.50;100350.20;1689247;82;21515;-54
2021/11/06 05:41:49;;;;;;;5.75;4.50;;;;;;;7.67;78.62;100354.16;1723759;81;21615;-55
2021/11/06 05:44:15;;;;;;;6.08;4.30;;;;;;;7.73;79.12;100351.41;1683073;84;21479;-55
2021/11/06 05:46:42;;;;;;;5.28;4.78;;;;;;;7.81;78.30;100351.25;1684567;83;21514;-56
2021/11/06 05:49:09;;;;;;;6.17;4.83;;;;;;;7.77;78.23;100350.45;1730659;81;21446;-56
2021/11/06 05:51:36;;;;;;;5.62;4.78;;;;;;;7.72;78.57;100341.85;1727814;82;21425;-56
2021/11/06 05:54:03;;;;;;;5.10;4.60;;;;;;;7.69;78.88;100343.66;1723946;80;21836;-56
2021/11/06 05:56:30;;;;;;;5.35;4.55;;;;;;;7.79;77.90;100348.66;1707646;82;21415;-55
2021/11/06 05:58:56;;;;;;;5.25;4.75;;;;;;;7.79;77.98;100352.59;1728137;80;21507;-56
2021/11/06 06:01:23;;;;;;;5.40;4.55;;;;;;;7.71;77.29;100355.81;1725241;81;21582;-55
2021/11/06 06:03:50;;;;;;;5.08;4.45;;;;;;;7.65;77.61;100354.63;1695841;83;21053;-55
2021/11/06 06:06:16;;;;;;;6.80;4.95;;;;;;;7.66;76.44;100356.80;1718987;82;21781;-55
2021/11/06 06:08:44;;;;;;;5.17;4.22;;;;;;;7.65;76.84;100376.00;1716474;80;21551;-56
2021/11/06 06:11:11;;;;;;;4.85;4.35;;;;;;;7.74;76.30;100371.47;1689251;83;21478;-58
2021/11/06 06:13:38;;;;;;;5.13;4.17;;;;;;;7.70;76.35;100388.11;1693795;82;21053;-57
2021/11/06 06:16:05;;;;;;;7.72;4.83;;;;;;;7.59;76.85;100390.06;1714330;81;21630;-58
2021/11/06 06:18:32;;;;;;;6.62;4.62;;;;;;;7.52;77.21;100385.86;1727129;82;21746;-56
2021/11/06 06:21:00;;;;;;;4.87;4.37;;;;;;;7.47;77.95;100396.84;1726718;81;21011;-57
2021/11/06 06:23:34;;;;;;;7.17;5.15;;;;;;;7.49;78.17;100393.75;1725307;81;21464;-59
2021/11/06 06:26:09;;;;;;;6.95;5.17;;;;;;;7.48;78.24;100394.62;1704919;81;21544;-56
2021/11/06 06:28:37;;;;;;;6.17;5.00;;;;;;;7.42;78.07;100398.22;1733478;81;21404;-55
2021/11/06 06:31:04;;;;;;;6.25;4.92;;;;;;;7.36;78.54;100397.88;1728741;80;21922;-55
2021/11/06 06:33:31;;;;;;;7.08;3.87;;;;;;;7.33;79.20;100395.34;1735072;80;21100;-57
2021/11/06 06:36:00;;;;;;;5.42;4.80;;;;;;;7.47;79.34;100392.92;1735684;80;21635;-57
2021/11/06 06:38:26;;;;;;;6.80;5.00;;;;;;;7.62;77.99;100400.94;1733505;80;21562;-58
2021/11/06 06:40:53;;;;;;;5.80;5.08;;;;;;;7.62;77.59;100400.48;1737770;80;21561;-60
2021/11/06 06:43:20;;;;;;;6.07;5.47;;;;;;;7.63;78.15;100398.72;1738009;80;21775;-58
2021/11/06 06:45:47;;;;;;;6.20;5.60;;;;;;;7.69;78.00;100408.64;1736771;80;21498;-58
2021/11/06 06:48:15;;;;;;;10.53;6.05;;;;;;;7.86;77.60;100407.47;1722306;82;21527;-59
2021/11/06 06:50:46;;;;;;;7.83;6.33;;;;;;;7.95;75.73;100413.39;1716036;82;21477;-55
2021/11/06 06:53:10;;;;;;;9.55;6.55;;;;;;;7.94;75.38;100414.72;1706297;83;21465;-55
2021/11/06 06:55:37;;;;;;;8.27;6.57;;;;;;;7.91;75.00;100420.89;1703628;82;22096;-54
2021/11/06 06:58:03;;;;;;;8.25;6.28;;;;;;;7.89;76.15;100430.95;1697849;83;21171;-54
2021/11/06 07:00:30;;;;;;;8.23;6.80;;;;;;;7.97;75.14;100430.38;1696424;83;21587;-57
2021/11/06 07:02:57;;;;;;;7.87;7.08;;;;;;;8.13;75.17;100437.02;1696404;82;21542;-57
2021/11/06 07:05:24;;;;;;;7.05;6.35;;;;;;;8.16;74.89;100433.50;1691371;82;21547;-55
2021/11/06 07:07:53;;;;;;;8.18;7.28;;;;;;;8.16;74.63;100434.35;1689544;82;21755;-58
2021/11/06 07:10:19;;;;;;;8.58;6.72;;;;;;;8.18;74.29;100429.09;1695283;83;21562;-55
2021/11/06 07:12:46;;;;;;;7.87;7.05;;;;;;;8.16;73.84;100426.49;1693887;83;21594;-56
2021/11/06 07:15:14;;;;;;;7.83;6.60;;;;;;;8.32;73.35;100424.86;1684783;82;21654;-58
2021/11/06 07:17:41;;;;;;;13.55;6.65;;;;;;;8.43;73.49;100428.60;1696505;82;21591;-57
2021/11/06 07:20:09;;;;;;;7.85;6.87;;;;;;;8.42;72.61;100429.48;1710124;82;22078;-58
2021/11/06 07:22:36;;;;;;;;;;;;;;;8.45;72.89;100418.95;1724926;82;21530;-57
2021/11/06 07:25:06;;;;;;;7.62;6.87;;;;;;;8.45;71.60;100417.18;1704248;82;20486;-56
2021/11/06 07:27:34;;;;;;;10.38;6.85;;;;;;;8.46;72.42;100412.83;1697671;83;21506;-57
2021/11/06 07:30:01;;;;;;;8.65;6.55;;;;;;;8.71;71.23;100416.60;1700954;82;21654;-58
2021/11/06 07:32:27;;;;;;;8.05;6.45;;;;;;;8.71;71.23;100416.60;1702205;82;21828;-58
2021/11/06 07:34:55;;;;;;;8.35;6.83;;;;;;;8.75;69.45;100411.70;1685185;83;21156;-58
2021/11/06 07:37:22;;;;;;;8.13;6.97;;;;;;;8.76;70.08;100419.14;1705596;82;21056;-58
2021/11/06 07:39:49;;;;;;;9.20;7.28;;;;;;;8.80;71.19;100428.66;1710933;82;21831;-57
2021/11/06 07:42:16;;;;;;;8.30;6.80;;;;;;;8.85;70.76;100429.84;1682412;84;21502;-58
2021/11/06 07:44:42;;;;;;;8.83;6.62;;;;;;;8.88;70.63;100436.34;1682154;84;21741;-57
2021/11/06 07:47:09;;;;;;;6.87;6.17;;;;;;;9.06;69.06;100441.59;1677307;83;21085;-58
2021/11/06 07:49:36;;;;;;;7.13;6.30;;;;;;;9.11;68.24;100449.76;1680848;83;21894;-57
2021/11/06 07:52:04;;;;;;;8.25;7.10;;;;;;;9.08;69.08;100443.30;1677810;84;21018;-57
2021/11/06 07:54:30;;;;;;;;;;;;;;;9.09;67.93;100438.44;1680502;83;21567;-58
2021/11/06 07:56:57;;;;;;;7.30;6.60;;;;;;;9.04;68.46;100446.89;1676436;84;21796;-57
2021/11/06 07:59:23;;;;;;;9.88;6.55;;;;;;;9.08;68.78;100439.78;1683415;84;21503;-57
2021/11/06 08:01:52;;;;;;;9.88;6.47;;;;;;;9.05;67.34;100450.37;1680701;84;21034;-57
2021/11/06 08:04:18;;;;;;;7.55;6.62;;;;;;;9.03;67.02;100449.55;1698946;83;21546;-58
2021/11/06 08:06:45;;;;;;;6.55;5.58;;;;;;;9.00;67.04;100448.30;1688384;83;21660;-57
2021/11/06 08:09:13;;;;;;;7.33;6.03;;;;;;;9.13;67.41;100460.22;1701184;82;21847;-58
2021/11/06 08:11:39;;;;;;;;;;;;;;;9.16;67.04;100459.70;1700649;83;21924;-57
2021/11/06 08:14:06;;;;;;;7.53;6.43;;;;;;;9.21;66.84;100461.34;1696828;82;20144;-58
2021/11/06 08:16:33;;;;;;;7.00;6.22;;;;;;;9.24;67.25;100464.77;1692886;82;21082;-58
2021/11/06 08:19:00;;;;;;;7.10;6.40;;;;;;;9.31;66.60;100468.97;1699108;83;21530;-56
2021/11/06 08:21:26;;;;;;;10.78;7.00;;;;;;;9.30;65.97;100463.75;1703465;82;22194;-56
2021/11/06 08:23:53;;;;;;;6.67;5.97;;;;;;;9.33;65.96;100461.92;1688930;82;21565;-57
2021/11/06 08:26:19;;;;;;;8.10;5.90;;;;;;;9.34;66.21;100458.83;1701727;82;21480;-57
2021/11/06 08:28:46;;;;;;;7.57;5.30;;;;;;;9.42;66.75;100459.95;1699041;82;21551;-57
2021/11/06 08:31:13;;;;;;;5.45;4.95;;;;;;;9.53;66.41;100468.42;1683018;83;21531;-57
2021/11/06 08:33:39;;;;;;;5.83;4.92;;;;;;;9.66;65.97;100461.98;1678607;83;22175;-57
2021/11/06 08:36:06;;;;;;;7.28;5.35;;;;;;;9.74;63.85;100466.57;1676378;83;21584;-57
2021/11/06 08:38:33;;;;;;;5.92;5.00;;;;;;;9.71;64.49;100462.70;1676383;84;21514;-56
2021/11/06 08:41:01;;;;;;;8.10;5.55;;;;;;;9.81;64.21;100456.75;1664843;83;21568;-56
2021/11/06 08:43:29;;;;;;;5.42;4.90;;;;;;;9.89;64.96;100462.68;1683184;83;21587;-57
2021/11/06 08:45:56;;;;;;;6.67;4.70;;;;;;;10.00;63.54;100461.52;1721622;81;21761;-57
2021/11/06 08:48:22;;;;;;;5.92;5.15;;;;;;;10.05;63.83;100468.36;1720504;81;20990;-56
2021/11/06 08:50:49;;;;;;;4.67;4.22;;;;;;;10.13;62.41;100472.09;1702527;82;21546;-56
2021/11/06 08:53:15;;;;;;;7.45;4.78;;;;;;;10.09;62.09;100462.11;1692017;82;21625;-56
2021/11/06 08:55:42;;;;;;;6.62;4.62;;;;;;;10.07;61.25;100462.61;1684319;82;21566;-56
2021/11/06 08:58:10;;;;;;;5.25;4.50;;;;;;;10.12;60.64;100456.78;1690960;82;21672;-57
2021/11/06 09:00:41;;;;;;;4.47;4.05;;;;;;;10.19;60.44;100458.80;1727969;81;21597;-56
2021/11/06 09:03:11;;;;;;;4.87;4.33;;;;;;;10.17;59.30;100449.22;1721256;81;21431;-56
2021/11/06 09:05:38;;;;;;;7.75;5.65;;;;;;;10.18;59.12;100454.90;1688188;83;21499;-56
2021/11/06 09:08:06;;;;;;;6.03;5.42;;;;;;;10.27;59.97;100452.02;1724944;81;21566;-57
2021/11/06 09:10:32;;;;;;;5.05;4.55;;;;;;;10.43;59.81;100452.45;1727960;81;21814;-58
2021/11/06 09:12:59;;;;;;;5.37;4.87;;;;;;;10.60;58.95;100456.75;1721836;82;21544;-56
2021/11/06 09:15:26;;;;;;;7.62;5.05;;;;;;;10.66;57.65;100454.38;1693588;84;21519;-57
2021/11/06 09:17:54;;;;;;;5.28;4.78;;;;;;;10.78;57.20;100448.77;1726000;81;21590;-57
2021/11/06 09:20:21;;;;;;;4.87;4.50;;;;;;;11.01;58.55;100452.45;1720229;81;20935;-57
2021/11/06 09:22:50;;;;;;;4.92;4.45;;;;;;;11.40;57.11;100450.29;1730297;81;21824;-57
2021/11/06 09:25:16;;;;;;;4.53;4.03;;;;;;;11.73;55.68;100445.23;1685179;84;21057;-58
2021/11/06 09:27:43;;;;;;;4.45;4.05;;;;;;;12.05;55.48;100455.98;1728662;81;21472;-57
2021/11/06 09:30:11;;;;;;;4.22;3.67;;;;;;;12.43;51.51;100450.64;1730885;81;21547;-57
2021/11/06 09:32:38;;;;;;;6.15;4.42;;;;;;;12.50;51.26;100442.48;1742787;80;21601;-58
2021/11/06 09:35:07;;;;;;;4.22;3.83;;;;;;;12.56;50.25;100439.61;1737840;80;21393;-58
2021/11/06 09:37:36;;;;;;;7.08;3.83;;;;;;;12.65;50.72;100438.78;1708255;82;21491;-57
2021/11/06 09:40:07;;;;;;;4.55;3.80;;;;;;;12.87;49.68;100431.84;1702747;82;21018;-57
2021/11/06 09:42:34;;;;;;;5.17;4.65;;;;;;;12.85;49.84;100439.80;1701290;83;21569;-57
2021/11/06 09:45:01;;;;;;;4.65;4.22;;;;;;;12.94;49.70;100444.72;1697413;83;21414;-57
2021/11/06 09:47:28;;;;;;;5.10;4.65;;;;;;;13.03;49.93;100436.87;1702804;83;21681;-57
2021/11/06 09:49:55;;;;;;;6.37;4.65;;;;;;;12.87;49.23;100430.52;1710985;82;21533;-56
2021/11/06 09:52:21;;;;;;;5.28;4.78;;;;;;;12.35;50.06;100436.86;1701547;82;21560;-56
2021/11/06 09:54:48;;;;;;;5.80;4.70;;;;;;;12.07;51.56;100446.24;1673902;83;21477;-56
2021/11/06 09:57:15;;;;;;;5.17;4.65;;;;;;;12.07;52.05;100445.81;1711337;82;21039;-56
2021/11/06 09:59:42;;;;;;;5.30;4.80;;;;;;;12.14;51.66;100442.48;1701718;83;22200;-56
2021/11/06 10:02:09;;;;;;;4.30;3.90;;;;;;;12.02;52.48;100437.67;1705651;83;21470;-56
2021/11/06 10:04:36;;;;;;;4.62;4.20;;;;;;;11.93;53.10;100430.09;1710264;83;21562;-57
2021/11/06 10:07:20;;;;;;;4.53;4.17;;;;;;;11.83;51.79;100433.48;1704633;83;21426;-56
2021/11/06 10:10:12;;;;;;;5.05;4.42;;;;;;;11.75;52.55;100435.50;1701791;83;21500;-57
2021/11/06 10:12:52;;;;;;;4.85;4.45;;;;;;;11.66;53.68;100434.07;1679285;84;21680;-56
2021/11/06 10:15:21;;;;;;;5.22;4.33;;;;;;;11.51;53.68;100431.50;1667846;83;21524;-57
2021/11/06 10:17:49;;;;;;;5.28;4.87;;;;;;;11.33;53.72;100434.75;1687316;84;21582;-57
2021/11/06 10:20:29;;;;;;;5.25;4.75;;;;;;;11.08;54.19;100436.41;1680517;84;21589;-57
2021/11/06 10:23:03;;;;;;;5.25;4.70;;;;;;;11.29;54.03;100428.27;1696366;82;21576;-56
2021/11/06 10:25:30;;;;;;;6.47;5.28;;;;;;;11.98;53.69;100429.01;1678535;83;22149;-56
2021/11/06 10:28:01;;;;;;;5.12;4.35;;;;;;;12.56;51.62;100425.09;1681567;84;21464;-56
2021/11/06 10:30:33;;;;;;;7.17;5.00;;;;;;;12.81;51.95;100419.74;1691175;83;21479;-56
2021/11/06 10:33:12;;;;;;;5.40;4.90;;;;;;;13.19;52.44;100410.73;1698367;82;21633;-57
2021/11/06 10:35:49;;;;;;;6.42;4.75;;;;;;;13.91;51.43;100414.26;1731061;80;21416;-58
2021/11/06 10:38:23;;;;;;;4.47;3.98;;;;;;;14.71;48.04;100404.02;1731147;80;21816;-58
2021/11/06 10:41:03;;;;;;;4.83;3.92;;;;;;;14.98;45.06;100400.48;1725686;80;21038;-56
2021/11/06 10:43:27;;;;;;;7.77;4.47;;;;;;;15.38;44.75;100393.19;1730168;80;21510;-56
2021/11/06 10:45:58;;;;;;;4.50;4.10;;;;;;;15.66;43.19;100396.23;1732158;80;21697;-57
2021/11/06 10:48:32;;;;;;;4.08;3.67;;;;;;;16.24;42.00;100390.51;1729145;80;21633;-57
2021/11/06 10:51:13;;;;;;;3.80;3.20;;;;;;;16.78;40.67;100392.81;1726891;80;21833;-58
2021/11/06 10:54:00;;;;;;;3.72;3.42;;;;;;;16.80;39.50;100395.39;1734435;80;21499;-57
2021/11/06 10:56:42;;;;;;;3.60;3.30;;;;;;;16.72;40.10;100392.69;1723296;80;21601;-57
2021/11/06 10:59:16;;;;;;;4.20;3.80;;;;;;;16.86;38.60;100393.28;1722983;80;21531;-58
2021/11/06 11:01:52;;;;;;;4.25;3.62;;;;;;;17.01;38.30;100391.55;1727198;82;21477;-57
2021/11/06 11:04:18;;;;;;;4.40;3.40;;;;;;;16.06;38.95;100396.80;1736304;80;21827;-57
2021/11/06 11:06:57;;;;;;;4.65;4.25;;;;;;;15.03;41.21;100398.07;1689933;83;21466;-56
2021/11/06 11:09:27;;;;;;;5.08;4.58;;;;;;;14.36;42.57;100403.00;1732577;80;21468;-58
2021/11/06 11:12:03;;;;;;;5.00;4.50;;;;;;;13.68;44.66;100402.06;1725333;80;21703;-58
2021/11/06 11:14:32;;;;;;;5.28;4.22;;;;;;;13.51;45.78;100400.15;1700820;83;21556;-59
2021/11/06 11:17:04;;;;;;;4.75;4.35;;;;;;;13.19;45.63;100392.24;1711764;80;21804;-58
2021/11/06 11:19:39;;;;;;;4.85;4.40;;;;;;;12.94;46.11;100398.97;1729948;80;21611;-58
2021/11/06 11:22:09;;;;;;;5.62;4.40;;;;;;;12.81;47.02;100403.44;1702212;83;21498;-59
2021/11/06 11:24:37;;;;;;;5.20;4.70;;;;;;;12.78;46.57;100408.83;1729158;80;21504;-58
2021/11/06 11:27:05;;;;;;;5.60;5.10;;;;;;;12.60;47.32;100406.47;1730973;80;21634;-59
2021/11/06 11:29:34;;;;;;;;;;;;;;;12.49;48.08;100399.87;1738134;80;21768;-58
2021/11/06 11:32:01;;;;;;;5.42;4.92;;;;;;;12.41;48.93;100407.64;1734598;81;20461;-57
2021/11/06 11:34:27;;;;;;;5.10;4.60;;;;;;;12.53;48.63;100404.13;1729171;81;21512;-58